createdAt,value
2019-05-25T00:01:01.071Z,14.10
2019-05-25T00:03:29.927Z,14.10
2019-05-25T00:05:58.731Z,14.10
2019-05-25T00:08:27.762Z,14.10
2019-05-25T00:10:56.726Z,14.00
2019-05-25T00:13:25.955Z,14.00
2019-05-25T00:15:55.195Z,13.90
2019-05-25T00:18:24.116Z,13.90
2019-05-25T00:20:52.915Z,13.90
2019-05-25T00:23:21.762Z,13.80
2019-05-25T00:25:51.276Z,13.70
2019-05-25T00:28:20.080Z,13.70
2019-05-25T00:30:49.124Z,13.60
2019-05-25T00:33:18.020Z,13.60
2019-05-25T00:35:47.095Z,13.60
2019-05-25T00:38:16.242Z,13.50
2019-05-25T00:40:45.333Z,13.40
2019-05-25T00:43:14.430Z,13.40
2019-05-25T00:45:43.554Z,13.30
2019-05-25T00:48:12.798Z,13.30
2019-05-25T00:50:41.671Z,13.20
2019-05-25T00:53:10.873Z,13.20
2019-05-25T00:55:39.660Z,13.20
2019-05-25T00:58:08.608Z,13.10
2019-05-25T01:00:37.818Z,13.10
2019-05-25T01:03:07.025Z,13.10
2019-05-25T01:05:36.331Z,13.00
2019-05-25T01:08:05.283Z,12.90
2019-05-25T01:10:34.144Z,12.90
2019-05-25T01:13:03.289Z,12.80
2019-05-25T01:15:32.572Z,12.80
2019-05-25T01:18:01.443Z,12.70
2019-05-25T01:20:30.472Z,12.70
2019-05-25T01:22:59.545Z,12.60
2019-05-25T01:25:28.537Z,12.60
2019-05-25T01:27:57.674Z,12.50
2019-05-25T01:30:26.731Z,12.40
2019-05-25T01:32:55.638Z,12.40
2019-05-25T01:35:24.537Z,12.40
2019-05-25T01:37:53.692Z,12.30
2019-05-25T01:40:23.078Z,12.30
2019-05-25T01:42:52.021Z,12.20
2019-05-25T01:45:21.097Z,12.10
2019-05-25T01:47:49.925Z,12.10
2019-05-25T01:50:18.931Z,12.10
2019-05-25T01:52:48.061Z,12.00
2019-05-25T01:55:17.138Z,12.00
2019-05-25T01:57:46.113Z,11.90
2019-05-25T02:00:17.026Z,11.90
2019-05-25T02:02:45.909Z,11.80
2019-05-25T02:05:14.900Z,11.70
2019-05-25T02:07:43.719Z,11.70
2019-05-25T02:10:12.795Z,11.60
2019-05-25T02:12:41.673Z,11.60
2019-05-25T02:15:12.112Z,11.50
2019-05-25T02:17:41.262Z,11.50
2019-05-25T02:20:10.507Z,11.40
2019-05-25T02:22:40.994Z,11.40
2019-05-25T02:25:17.699Z,11.30
2019-05-25T02:27:41.428Z,11.30
2019-05-25T02:30:12.599Z,11.20
2019-05-25T02:32:41.853Z,11.20
2019-05-25T02:35:15.298Z,11.10
2019-05-25T02:37:44.130Z,11.10
2019-05-25T02:40:13.196Z,11.00
2019-05-25T02:42:42.040Z,11.00
2019-05-25T02:45:11.239Z,10.90
2019-05-25T02:47:40.305Z,10.90
2019-05-25T02:50:09.347Z,10.80
2019-05-25T02:52:38.263Z,10.70
2019-05-25T02:55:08.275Z,10.70
2019-05-25T02:57:37.369Z,10.60
2019-05-25T03:00:07.286Z,10.60
2019-05-25T03:02:36.425Z,10.50
2019-05-25T03:05:06.253Z,10.50
2019-05-25T03:07:36.665Z,10.40
2019-05-25T03:10:07.128Z,10.40
2019-05-25T03:12:36.217Z,10.40
2019-05-25T03:15:06.176Z,10.40
2019-05-25T03:17:35.914Z,10.40
2019-05-25T03:20:05.457Z,10.30
2019-05-25T03:22:34.659Z,10.30
2019-05-25T03:25:04.059Z,10.20
2019-05-25T03:27:33.022Z,10.20
2019-05-25T03:30:02.004Z,10.10
2019-05-25T03:32:30.884Z,10.20
2019-05-25T03:34:59.825Z,10.10
2019-05-25T03:37:28.662Z,10.10
2019-05-25T03:39:57.741Z,10.10
2019-05-25T03:42:26.902Z,10.10
2019-05-25T03:44:56.503Z,10.10
2019-05-25T03:47:25.533Z,10.10
2019-05-25T03:49:54.837Z,10.00
2019-05-25T03:52:23.911Z,10.00
2019-05-25T03:54:53.069Z,10.00
2019-05-25T03:57:22.026Z,10.00
2019-05-25T03:59:51.041Z,10.00
2019-05-25T04:02:19.908Z,9.90
2019-05-25T04:04:48.988Z,9.90
2019-05-25T04:07:18.293Z,9.80
2019-05-25T04:09:47.515Z,9.80
2019-05-25T04:12:16.607Z,9.80
2019-05-25T04:14:45.398Z,9.80
2019-05-25T04:17:14.967Z,9.80
2019-05-25T04:19:44.241Z,9.80
2019-05-25T04:22:14.014Z,9.70
2019-05-25T04:24:42.885Z,9.70
2019-05-25T04:27:11.815Z,9.70
2019-05-25T04:29:41.146Z,9.70
2019-05-25T04:32:10.281Z,9.70
2019-05-25T04:34:39.622Z,9.70
2019-05-25T04:37:08.612Z,9.70
2019-05-25T04:39:37.740Z,9.60
2019-05-25T04:42:06.997Z,9.60
2019-05-25T04:44:35.790Z,9.60
2019-05-25T04:47:06.109Z,9.60
2019-05-25T04:49:35.074Z,9.60
2019-05-25T04:52:04.258Z,9.70
2019-05-25T04:54:33.357Z,9.80
2019-05-25T04:57:02.609Z,9.80
2019-05-25T04:59:31.741Z,10.00
2019-05-25T05:02:00.638Z,10.00
2019-05-25T05:04:29.600Z,10.10
2019-05-25T05:06:58.721Z,10.20
2019-05-25T05:09:29.149Z,10.30
2019-05-25T05:11:59.136Z,10.40
2019-05-25T05:14:28.286Z,10.50
2019-05-25T05:16:57.244Z,10.60
2019-05-25T05:19:26.208Z,10.70
2019-05-25T05:21:55.409Z,10.80
2019-05-25T05:24:24.546Z,10.90
2019-05-25T05:26:56.158Z,11.00
2019-05-25T05:29:24.557Z,11.00
2019-05-25T05:31:53.536Z,11.10
2019-05-25T05:34:23.043Z,11.20
2019-05-25T05:36:55.593Z,11.20
2019-05-25T05:39:26.649Z,11.30
2019-05-25T05:41:55.891Z,11.30
2019-05-25T05:44:28.315Z,11.40
2019-05-25T05:46:59.652Z,11.40
2019-05-25T05:49:30.414Z,11.40
2019-05-25T05:52:02.313Z,11.50
2019-05-25T05:54:32.929Z,11.60
2019-05-25T05:57:11.825Z,11.60
2019-05-25T05:59:32.509Z,11.70
2019-05-25T06:02:01.666Z,11.80
2019-05-25T06:04:30.964Z,11.90
2019-05-25T06:07:00.087Z,12.00
2019-05-25T06:09:29.390Z,12.10
2019-05-25T06:11:58.322Z,12.10
2019-05-25T06:14:28.669Z,12.10
2019-05-25T06:16:57.588Z,12.20
2019-05-25T06:19:27.243Z,12.30
2019-05-25T06:21:56.464Z,12.40
2019-05-25T06:24:25.746Z,12.40
2019-05-25T06:26:54.650Z,12.50
2019-05-25T06:29:23.753Z,12.60
2019-05-25T06:31:54.751Z,12.70
2019-05-25T06:34:23.808Z,12.80
2019-05-25T06:36:52.730Z,13.00
2019-05-25T06:39:21.802Z,13.10
2019-05-25T06:41:51.036Z,13.20
2019-05-25T06:44:20.011Z,13.30
2019-05-25T06:46:48.953Z,13.30
2019-05-25T06:49:18.014Z,13.30
2019-05-25T06:51:47.286Z,13.30
2019-05-25T06:54:16.633Z,13.40
2019-05-25T06:56:45.611Z,13.40
2019-05-25T06:59:14.611Z,13.40
2019-05-25T07:01:43.616Z,13.40
2019-05-25T07:04:12.533Z,13.40
2019-05-25T07:06:41.496Z,13.30
2019-05-25T07:09:10.837Z,13.30
2019-05-25T07:11:40.094Z,13.40
2019-05-25T07:14:09.175Z,13.50
2019-05-25T07:16:38.472Z,13.50
2019-05-25T07:19:07.680Z,13.50
2019-05-25T07:21:36.844Z,13.60
2019-05-25T07:24:07.158Z,13.80
2019-05-25T07:26:36.077Z,14.00
2019-05-25T07:29:05.081Z,14.20
2019-05-25T07:31:34.054Z,14.30
2019-05-25T07:34:03.213Z,14.30
2019-05-25T07:36:32.218Z,14.20
2019-05-25T07:39:02.517Z,14.20
2019-05-25T07:41:33.672Z,14.30
2019-05-25T07:44:02.987Z,14.30
2019-05-25T07:46:33.013Z,14.40
2019-05-25T07:49:02.058Z,14.40
2019-05-25T07:51:31.348Z,14.40
2019-05-25T07:54:00.988Z,14.50
2019-05-25T07:56:31.216Z,14.60
2019-05-25T07:59:00.436Z,14.70
2019-05-25T08:01:29.583Z,14.80
2019-05-25T08:03:58.529Z,14.90
2019-05-25T08:06:27.809Z,14.90
2019-05-25T08:08:58.153Z,15.00
2019-05-25T08:11:27.405Z,14.90
2019-05-25T08:13:56.615Z,15.00
2019-05-25T08:16:25.789Z,15.00
2019-05-25T08:18:57.046Z,15.20
2019-05-25T08:21:26.081Z,15.50
2019-05-25T08:23:55.322Z,15.80
2019-05-25T08:26:24.417Z,16.00
2019-05-25T08:28:53.550Z,16.00
2019-05-25T08:31:22.770Z,16.00
2019-05-25T08:33:51.794Z,15.90
2019-05-25T08:36:20.795Z,16.00
2019-05-25T08:38:50.284Z,16.10
2019-05-25T08:41:19.440Z,16.20
2019-05-25T08:43:48.413Z,16.30
2019-05-25T08:46:17.373Z,16.30
2019-05-25T08:48:46.555Z,16.30
2019-05-25T08:51:16.088Z,16.30
2019-05-25T08:53:46.769Z,16.40
2019-05-25T08:56:15.918Z,16.50
2019-05-25T08:58:49.120Z,16.60
2019-05-25T09:01:16.480Z,16.50
2019-05-25T09:03:45.700Z,16.40
2019-05-25T09:06:14.880Z,16.40
2019-05-25T09:08:43.798Z,16.50
2019-05-25T09:11:13.191Z,16.50
2019-05-25T09:13:42.391Z,16.70
2019-05-25T09:16:11.562Z,16.80
2019-05-25T09:18:40.633Z,16.90
2019-05-25T09:21:11.572Z,17.10
2019-05-25T09:23:40.567Z,17.10
2019-05-25T09:26:13.263Z,17.10
2019-05-25T09:28:40.519Z,17.10
2019-05-25T09:31:10.099Z,17.10
2019-05-25T09:33:39.438Z,17.20
2019-05-25T09:36:08.490Z,17.30
2019-05-25T09:38:37.451Z,17.50
2019-05-25T09:41:06.361Z,17.80
2019-05-25T09:43:35.381Z,18.10
2019-05-25T09:46:04.382Z,18.30
2019-05-25T09:48:33.482Z,18.20
2019-05-25T09:51:02.842Z,18.00
2019-05-25T09:53:32.082Z,17.80
2019-05-25T09:56:01.026Z,17.80
2019-05-25T09:58:29.976Z,18.00
2019-05-25T10:00:59.439Z,18.00
2019-05-25T10:03:28.766Z,17.90
2019-05-25T10:05:57.686Z,17.80
2019-05-25T10:08:27.075Z,17.80
2019-05-25T10:10:56.214Z,18.00
2019-05-25T10:13:25.487Z,18.20
2019-05-25T10:15:54.478Z,18.40
2019-05-25T10:18:23.500Z,18.60
2019-05-25T10:20:52.733Z,18.80
2019-05-25T10:23:22.002Z,18.90
2019-05-25T10:25:51.151Z,19.10
2019-05-25T10:28:20.554Z,19.20
2019-05-25T10:30:49.636Z,19.30
2019-05-25T10:33:21.675Z,19.40
2019-05-25T10:35:49.346Z,19.50
2019-05-25T10:38:18.266Z,19.50
2019-05-25T10:40:47.555Z,19.40
2019-05-25T10:43:16.440Z,19.40
2019-05-25T10:45:45.810Z,19.40
2019-05-25T10:48:14.773Z,19.30
2019-05-25T10:50:44.004Z,19.30
2019-05-25T10:53:14.310Z,19.40
2019-05-25T10:55:43.697Z,19.50
2019-05-25T10:58:12.904Z,19.60
2019-05-25T11:00:42.175Z,19.70
2019-05-25T11:03:11.041Z,19.70
2019-05-25T11:05:40.052Z,19.60
2019-05-25T11:08:08.957Z,19.70
2019-05-25T11:10:38.044Z,19.80
2019-05-25T11:13:07.006Z,19.90
2019-05-25T11:15:35.967Z,20.20
2019-05-25T11:18:05.042Z,20.40
2019-05-25T11:20:33.920Z,20.60
2019-05-25T11:23:03.951Z,20.60
2019-05-25T11:25:32.839Z,20.50
2019-05-25T11:28:01.693Z,20.50
2019-05-25T11:30:31.108Z,20.60
2019-05-25T11:33:00.321Z,20.60
2019-05-25T11:35:29.337Z,20.70
2019-05-25T11:37:58.621Z,20.70
2019-05-25T11:40:28.397Z,20.80
2019-05-25T11:42:57.353Z,21.00
2019-05-25T11:45:26.469Z,21.00
2019-05-25T11:47:55.886Z,21.00
2019-05-25T11:50:24.974Z,20.70
2019-05-25T11:52:53.985Z,20.70
2019-05-25T11:55:23.394Z,20.90
2019-05-25T11:57:52.644Z,20.90
2019-05-25T12:00:25.905Z,21.00
2019-05-25T12:03:02.257Z,21.20
2019-05-25T12:05:31.340Z,21.20
2019-05-25T12:08:00.817Z,21.10
2019-05-25T12:10:30.155Z,21.00
2019-05-25T12:12:58.971Z,20.90
2019-05-25T12:15:27.893Z,20.70
2019-05-25T12:17:57.123Z,20.60
2019-05-25T12:20:26.462Z,20.50
2019-05-25T12:22:55.409Z,20.60
2019-05-25T12:25:24.485Z,21.00
2019-05-25T12:27:53.932Z,21.20
2019-05-25T12:30:23.058Z,21.00
2019-05-25T12:32:51.964Z,21.00
2019-05-25T12:35:21.257Z,21.00
2019-05-25T12:37:50.232Z,20.80
2019-05-25T12:40:20.964Z,20.70
2019-05-25T12:42:49.964Z,20.70
2019-05-25T12:45:19.070Z,20.80
2019-05-25T12:47:48.573Z,20.80
2019-05-25T12:50:17.888Z,21.00
2019-05-25T12:52:47.246Z,21.30
2019-05-25T12:55:17.830Z,21.50
2019-05-25T12:57:47.057Z,21.60
2019-05-25T13:00:16.856Z,21.50
2019-05-25T13:02:46.513Z,21.20
2019-05-25T13:05:15.890Z,20.90
2019-05-25T13:07:45.430Z,20.90
2019-05-25T13:10:15.257Z,21.00
2019-05-25T13:12:44.299Z,21.20
2019-05-25T13:15:13.271Z,21.30
2019-05-25T13:17:42.523Z,21.30
2019-05-25T13:20:11.932Z,21.60
2019-05-25T13:22:40.936Z,21.70
2019-05-25T13:25:09.928Z,21.90
2019-05-25T13:27:38.831Z,22.10
2019-05-25T13:30:08.185Z,22.20
2019-05-25T13:32:36.992Z,22.40
2019-05-25T13:35:06.533Z,22.50
2019-05-25T13:37:35.533Z,22.60
2019-05-25T13:40:05.089Z,22.60
2019-05-25T13:42:34.221Z,22.70
2019-05-25T13:45:03.613Z,22.70
2019-05-25T13:47:32.825Z,22.80
2019-05-25T13:50:02.024Z,22.80
2019-05-25T13:52:31.215Z,22.80
2019-05-25T13:55:00.678Z,22.70
2019-05-25T13:57:29.845Z,22.60
2019-05-25T13:59:58.880Z,22.60
2019-05-25T14:02:28.069Z,22.60
2019-05-25T14:04:57.105Z,22.50
2019-05-25T14:07:26.132Z,22.40
2019-05-25T14:09:55.527Z,22.30
2019-05-25T14:12:24.666Z,22.10
2019-05-25T14:14:53.486Z,22.00
2019-05-25T14:17:22.854Z,22.10
2019-05-25T14:19:51.719Z,22.30
2019-05-25T14:22:20.661Z,22.50
2019-05-25T14:24:49.618Z,22.60
2019-05-25T14:27:18.501Z,22.80
2019-05-25T14:29:47.463Z,22.80
2019-05-25T14:32:16.313Z,22.90
2019-05-25T14:34:45.207Z,23.00
2019-05-25T14:37:14.244Z,23.00
2019-05-25T14:39:43.438Z,22.80
2019-05-25T14:42:12.436Z,22.80
2019-05-25T14:44:41.642Z,22.80
2019-05-25T14:47:10.658Z,22.90
2019-05-25T14:49:39.889Z,23.00
2019-05-25T14:52:08.894Z,23.20
2019-05-25T14:54:39.653Z,23.30
2019-05-25T14:57:08.666Z,23.10
2019-05-25T14:59:37.576Z,23.00
2019-05-25T15:02:06.952Z,22.80
2019-05-25T15:04:35.821Z,22.60
2019-05-25T15:07:05.186Z,22.40
2019-05-25T15:09:34.126Z,22.30
2019-05-25T15:12:03.210Z,22.30
2019-05-25T15:14:32.077Z,22.50
2019-05-25T15:17:01.169Z,22.60
2019-05-25T15:19:30.073Z,22.80
2019-05-25T15:21:59.203Z,22.90
2019-05-25T15:24:28.149Z,22.80
2019-05-25T15:26:57.093Z,22.70
2019-05-25T15:29:26.010Z,22.60
2019-05-25T15:31:55.193Z,22.50
2019-05-25T15:34:24.398Z,22.50
2019-05-25T15:36:53.293Z,22.60
2019-05-25T15:39:22.377Z,22.70
2019-05-25T15:41:51.431Z,22.80
2019-05-25T15:44:20.301Z,22.90
2019-05-25T15:46:49.254Z,23.10
2019-05-25T15:49:18.568Z,23.20
2019-05-25T15:51:47.660Z,23.20
2019-05-25T15:54:16.533Z,23.30
2019-05-25T15:56:45.494Z,23.40
2019-05-25T15:59:14.455Z,23.50
2019-05-25T16:01:43.501Z,23.50
2019-05-25T16:04:13.022Z,23.60
2019-05-25T16:06:41.963Z,23.80
2019-05-25T16:09:11.014Z,23.90
2019-05-25T16:11:40.174Z,24.00
2019-05-25T16:14:09.178Z,24.00
2019-05-25T16:16:37.985Z,24.10
2019-05-25T16:19:07.835Z,24.10
2019-05-25T16:21:37.135Z,24.20
2019-05-25T16:24:08.134Z,24.20
2019-05-25T16:26:45.325Z,24.30
2019-05-25T16:29:07.622Z,24.30
2019-05-25T16:31:36.673Z,24.30
2019-05-25T16:34:06.037Z,24.40
2019-05-25T16:36:34.929Z,24.50
2019-05-25T16:39:05.146Z,24.60
2019-05-25T16:41:34.165Z,24.80
2019-05-25T16:44:03.168Z,25.10
2019-05-25T16:46:32.056Z,25.40
2019-05-25T16:49:01.418Z,25.60
2019-05-25T16:51:30.400Z,25.70
2019-05-25T16:53:59.875Z,25.80
2019-05-25T16:56:31.020Z,26.00
2019-05-25T16:59:00.121Z,26.00
2019-05-25T17:01:46.518Z,25.80
2019-05-25T17:03:59.709Z,25.40
2019-05-25T17:06:28.947Z,24.90
2019-05-25T17:08:57.761Z,24.60
2019-05-25T17:11:27.068Z,24.30
2019-05-25T17:14:02.153Z,24.10
2019-05-25T17:16:31.058Z,23.80
2019-05-25T17:18:59.977Z,23.60
2019-05-25T17:21:29.203Z,23.50
2019-05-25T17:23:58.165Z,23.30
2019-05-25T17:26:27.164Z,23.00
2019-05-25T17:28:56.090Z,22.90
2019-05-25T17:31:25.038Z,22.70
2019-05-25T17:33:54.331Z,22.50
2019-05-25T17:36:23.282Z,22.40
2019-05-25T17:38:52.305Z,22.10
2019-05-25T17:41:21.536Z,22.00
2019-05-25T17:43:50.498Z,21.80
2019-05-25T17:46:22.598Z,21.70
2019-05-25T17:48:51.823Z,21.60
2019-05-25T17:51:25.014Z,21.50
2019-05-25T17:53:53.950Z,21.40
2019-05-25T17:56:22.913Z,21.30
2019-05-25T17:58:51.776Z,21.20
2019-05-25T18:01:20.877Z,21.10
2019-05-25T18:04:05.410Z,21.00
2019-05-25T18:06:20.533Z,20.80
2019-05-25T18:08:49.414Z,20.70
2019-05-25T18:11:18.605Z,20.60
2019-05-25T18:13:47.815Z,20.60
2019-05-25T18:16:16.780Z,20.60
2019-05-25T18:18:45.958Z,20.50
2019-05-25T18:21:14.824Z,20.40
2019-05-25T18:23:44.005Z,20.30
2019-05-25T18:26:13.017Z,20.20
2019-05-25T18:28:41.937Z,20.10
2019-05-25T18:31:11.317Z,20.00
2019-05-25T18:33:40.529Z,20.00
2019-05-25T18:36:09.879Z,19.80
2019-05-25T18:38:39.128Z,19.70
2019-05-25T18:41:08.249Z,19.60
2019-05-25T18:43:37.145Z,19.50
2019-05-25T18:46:08.308Z,19.40
2019-05-25T18:48:37.194Z,19.40
2019-05-25T18:51:06.127Z,19.30
2019-05-25T18:53:35.083Z,19.30
2019-05-25T18:56:04.117Z,19.20
2019-05-25T18:58:33.007Z,19.20
2019-05-25T19:01:02.320Z,19.10
2019-05-25T19:03:31.459Z,19.10
2019-05-25T19:06:00.603Z,19.00
2019-05-25T19:08:31.141Z,18.90
2019-05-25T19:11:06.869Z,18.80
2019-05-25T19:13:35.775Z,18.70
2019-05-25T19:16:04.781Z,18.70
2019-05-25T19:18:33.908Z,18.60
2019-05-25T19:21:02.957Z,18.50
2019-05-25T19:23:31.910Z,18.40
2019-05-25T19:26:00.814Z,18.30
2019-05-25T19:28:30.131Z,18.30
2019-05-25T19:30:59.353Z,18.20
2019-05-25T19:33:28.667Z,18.10
2019-05-25T19:35:57.498Z,18.00
2019-05-25T19:38:26.719Z,18.00
2019-05-25T19:40:55.761Z,17.90
2019-05-25T19:43:24.849Z,17.80
2019-05-25T19:45:54.022Z,17.80
2019-05-25T19:48:23.522Z,17.80
2019-05-25T19:50:56.065Z,17.70
2019-05-25T19:53:24.327Z,17.60
2019-05-25T19:55:53.397Z,17.60
2019-05-25T19:58:22.656Z,17.50
2019-05-25T20:00:51.802Z,17.40
2019-05-25T20:03:21.034Z,17.40
2019-05-25T20:05:50.127Z,17.30
2019-05-25T20:08:19.213Z,17.20
2019-05-25T20:10:48.845Z,17.10
2019-05-25T20:13:19.497Z,17.00
2019-05-25T20:15:48.336Z,17.00
2019-05-25T20:18:17.466Z,16.90
2019-05-25T20:20:46.627Z,16.80
2019-05-25T20:23:15.639Z,16.70
2019-05-25T20:25:44.737Z,16.60
2019-05-25T20:28:18.615Z,16.50
2019-05-25T20:30:52.642Z,16.50
2019-05-25T20:33:27.593Z,16.40
2019-05-25T20:35:53.435Z,16.30
2019-05-25T20:38:23.752Z,16.20
2019-05-25T20:41:01.375Z,16.20
2019-05-25T20:43:33.857Z,16.10
2019-05-25T20:46:04.385Z,16.00
2019-05-25T20:48:33.978Z,15.90
2019-05-25T20:51:04.576Z,15.90
2019-05-25T20:53:35.913Z,15.80
2019-05-25T20:56:05.816Z,15.70
2019-05-25T20:58:35.713Z,15.60
2019-05-25T21:01:09.935Z,15.60
2019-05-25T21:03:40.597Z,15.50
2019-05-25T21:06:10.588Z,15.40
2019-05-25T21:08:39.721Z,15.40
2019-05-25T21:11:09.036Z,15.30
2019-05-25T21:13:39.001Z,15.30
2019-05-25T21:16:08.843Z,15.20
2019-05-25T21:18:38.277Z,15.10
2019-05-25T21:21:08.213Z,15.00
2019-05-25T21:23:37.658Z,15.00
2019-05-25T21:26:07.930Z,14.90
2019-05-25T21:28:39.475Z,14.80
2019-05-25T21:31:13.062Z,14.80
2019-05-25T21:33:45.207Z,14.70
2019-05-25T21:36:15.300Z,14.70
2019-05-25T21:38:49.512Z,14.60
2019-05-25T21:41:19.304Z,14.50
2019-05-25T21:43:52.453Z,14.50
2019-05-25T21:46:22.038Z,14.40
2019-05-25T21:48:52.094Z,14.30
2019-05-25T21:51:22.069Z,14.30
2019-05-25T21:53:53.513Z,14.30
2019-05-25T21:56:23.050Z,14.20
2019-05-25T21:58:57.427Z,14.10
2019-05-25T22:01:35.897Z,14.10
2019-05-25T22:04:06.062Z,14.00
2019-05-25T22:06:35.931Z,14.00
2019-05-25T22:09:10.215Z,14.00
2019-05-25T22:11:40.153Z,13.90
2019-05-25T22:14:11.463Z,13.90
2019-05-25T22:16:41.093Z,13.80
2019-05-25T22:19:10.524Z,13.80
2019-05-25T22:21:40.024Z,13.70
2019-05-25T22:24:09.796Z,13.60
2019-05-25T22:26:39.481Z,13.60
2019-05-25T22:29:09.068Z,13.50
2019-05-25T22:31:38.493Z,13.50
2019-05-25T22:34:08.963Z,13.40
2019-05-25T22:36:40.714Z,13.40
2019-05-25T22:39:10.003Z,13.30
2019-05-25T22:41:39.606Z,13.30
2019-05-25T22:44:09.201Z,13.20
2019-05-25T22:46:38.752Z,13.20
2019-05-25T22:49:08.934Z,13.10
2019-05-25T22:51:38.775Z,13.10
2019-05-25T22:54:08.333Z,13.10
2019-05-25T22:56:38.277Z,13.00
2019-05-25T22:59:08.037Z,13.00
2019-05-25T23:01:37.815Z,12.90
2019-05-25T23:04:07.712Z,12.90
2019-05-25T23:06:37.349Z,12.80
2019-05-25T23:09:08.131Z,12.80
2019-05-25T23:11:37.788Z,12.70
2019-05-25T23:14:09.853Z,12.70
2019-05-25T23:16:38.341Z,12.60
2019-05-25T23:19:08.349Z,12.60
2019-05-25T23:21:37.836Z,12.50
2019-05-25T23:24:07.658Z,12.50
2019-05-25T23:26:37.245Z,12.40
2019-05-25T23:29:07.316Z,12.40
2019-05-25T23:31:36.969Z,12.30
2019-05-25T23:34:06.421Z,12.30
2019-05-25T23:36:36.379Z,12.30
2019-05-25T23:39:07.102Z,12.30
2019-05-25T23:41:36.877Z,12.20
2019-05-25T23:44:06.674Z,12.20
2019-05-25T23:46:36.714Z,12.10
2019-05-25T23:49:06.776Z,12.10
2019-05-25T23:51:36.813Z,12.00
2019-05-25T23:54:06.229Z,12.00
2019-05-25T23:56:36.316Z,12.00
2019-05-25T23:59:05.899Z,11.90
